createdAt,value
2023-05-24T00:01:35.115Z,99922.10
2023-05-24T00:04:08.823Z,99917.58
2023-05-24T00:06:45.134Z,99913.95
2023-05-24T00:09:18.859Z,99911.46
2023-05-24T00:11:52.473Z,99911.95
2023-05-24T00:14:26.383Z,99909.81
2023-05-24T00:17:00.241Z,99908.23
2023-05-24T00:19:34.525Z,99907.03
2023-05-24T00:22:08.536Z,99905.09
2023-05-24T00:24:42.390Z,99902.75
2023-05-24T00:27:16.299Z,99902.52
2023-05-24T00:29:49.983Z,99902.75
2023-05-24T00:32:23.854Z,99900.11
2023-05-24T00:34:57.976Z,99895.31
2023-05-24T00:37:32.457Z,99896.80
2023-05-24T00:40:07.027Z,99894.40
2023-05-24T00:42:41.235Z,99892.20
2023-05-24T00:45:16.062Z,99894.14
2023-05-24T00:47:49.880Z,99897.04
2023-05-24T00:50:23.753Z,99896.00
2023-05-24T00:52:58.773Z,99892.33
2023-05-24T00:55:33.171Z,99893.30
2023-05-24T00:58:07.098Z,99888.85
2023-05-24T01:00:41.721Z,99889.07
2023-05-24T01:03:15.665Z,99889.69
2023-05-24T01:05:50.433Z,99892.48
2023-05-24T01:08:43.093Z,99890.61
2023-05-24T01:11:24.709Z,99891.48
2023-05-24T01:14:06.517Z,99889.27
2023-05-24T01:16:52.136Z,99892.13
2023-05-24T01:19:43.716Z,99891.38
2023-05-24T01:22:38.423Z,99893.63
2023-05-24T01:25:21.689Z,99891.79
2023-05-24T01:27:56.535Z,99890.58
2023-05-24T01:30:31.272Z,99895.81
2023-05-24T01:33:05.369Z,99893.13
2023-05-24T01:35:42.710Z,99895.71
2023-05-24T01:38:16.640Z,99897.08
2023-05-24T01:40:54.943Z,99899.03
2023-05-24T01:43:34.176Z,99897.67
2023-05-24T01:46:21.206Z,99898.86
2023-05-24T01:49:21.140Z,99900.52
2023-05-24T01:52:00.904Z,99903.92
2023-05-24T01:54:40.051Z,99900.20
2023-05-24T01:57:14.821Z,99900.30
2023-05-24T01:59:49.697Z,99898.83
2023-05-24T02:02:24.024Z,99899.94
2023-05-24T02:05:00.915Z,99900.61
2023-05-24T02:07:34.468Z,99900.33
2023-05-24T02:10:10.949Z,99900.33
2023-05-24T02:12:44.739Z,99900.40
2023-05-24T02:15:18.879Z,99899.02
2023-05-24T02:17:55.032Z,99899.83
2023-05-24T02:20:31.435Z,99900.94
2023-05-24T02:23:06.105Z,99899.30
2023-05-24T02:25:39.709Z,99901.45
2023-05-24T02:28:13.600Z,99902.96
2023-05-24T02:30:47.489Z,99905.66
2023-05-24T02:33:21.492Z,99904.88
2023-05-24T02:35:55.200Z,99903.89
2023-05-24T02:38:29.520Z,99905.55
2023-05-24T02:41:02.956Z,99902.30
2023-05-24T02:43:36.553Z,99901.66
2023-05-24T02:46:10.806Z,99901.52
2023-05-24T02:48:44.861Z,99899.40
2023-05-24T02:51:18.558Z,99904.42
2023-05-24T02:53:52.119Z,99908.77
2023-05-24T02:56:26.941Z,99909.43
2023-05-24T02:59:01.655Z,99908.33
2023-05-24T03:01:36.818Z,99910.00
2023-05-24T03:04:10.877Z,99913.43
2023-05-24T03:06:44.979Z,99913.23
2023-05-24T03:09:20.781Z,99915.53
2023-05-24T03:11:55.103Z,99917.50
2023-05-24T03:14:29.027Z,99917.14
2023-05-24T03:17:02.620Z,99916.25
2023-05-24T03:19:37.794Z,99919.75
2023-05-24T03:22:11.756Z,99920.81
2023-05-24T03:24:46.690Z,99919.84
2023-05-24T03:27:20.543Z,99923.11
2023-05-24T03:29:54.945Z,99923.21
2023-05-24T03:32:30.020Z,99924.53
2023-05-24T03:35:04.086Z,99922.90
2023-05-24T03:37:37.618Z,99923.29
2023-05-24T03:40:12.990Z,99922.63
2023-05-24T03:42:56.496Z,99920.67
2023-05-24T03:45:50.844Z,99922.69
2023-05-24T03:48:26.034Z,99929.09
2023-05-24T03:51:00.263Z,99932.70
2023-05-24T03:53:33.981Z,99931.73
2023-05-24T03:56:08.374Z,99934.35
2023-05-24T03:58:42.188Z,99936.64
2023-05-24T04:01:29.293Z,99939.23
2023-05-24T04:04:07.460Z,99941.55
2023-05-24T04:06:42.212Z,99939.44
2023-05-24T04:09:16.161Z,99946.05
2023-05-24T04:11:50.440Z,99948.51
2023-05-24T04:14:24.298Z,99952.33
2023-05-24T04:16:58.266Z,99955.20
2023-05-24T04:19:32.464Z,99958.05
2023-05-24T04:22:06.702Z,99961.14
2023-05-24T04:24:43.136Z,99960.73
2023-05-24T04:27:18.332Z,99962.86
2023-05-24T04:29:53.533Z,99961.55
2023-05-24T04:32:30.963Z,99964.23
2023-05-24T04:35:05.124Z,99969.42
2023-05-24T04:37:40.346Z,99975.27
2023-05-24T04:40:16.699Z,99971.53
2023-05-24T04:42:50.323Z,99966.91
2023-05-24T04:45:24.338Z,99969.45
2023-05-24T04:47:58.397Z,99971.79
2023-05-24T04:50:32.432Z,99972.68
2023-05-24T04:53:05.972Z,99973.66
2023-05-24T04:55:39.327Z,99974.46
2023-05-24T04:58:13.073Z,99979.35
2023-05-24T05:00:47.361Z,99979.30
2023-05-24T05:03:21.325Z,99980.45
2023-05-24T05:05:55.355Z,99981.46
2023-05-24T05:08:29.682Z,99985.79
2023-05-24T05:11:03.674Z,99984.75
2023-05-24T05:13:37.581Z,99981.17
2023-05-24T05:16:11.758Z,99986.08
2023-05-24T05:18:45.845Z,99989.00
2023-05-24T05:21:23.421Z,99994.44
2023-05-24T05:23:57.210Z,99999.35
2023-05-24T05:26:31.262Z,100006.16
2023-05-24T05:29:05.540Z,100011.56
2023-05-24T05:31:39.995Z,100011.84
2023-05-24T05:34:13.656Z,100005.45
2023-05-24T05:36:47.356Z,100003.03
2023-05-24T05:39:21.050Z,100007.16
2023-05-24T05:41:54.802Z,100009.48
2023-05-24T05:44:28.886Z,100013.27
2023-05-24T05:47:04.269Z,100015.55
2023-05-24T05:49:38.357Z,100017.54
2023-05-24T05:52:12.569Z,100013.23
2023-05-24T05:54:46.371Z,100008.88
2023-05-24T05:57:24.713Z,100011.00
2023-05-24T06:00:02.096Z,100017.77
2023-05-24T06:02:45.843Z,100020.22
2023-05-24T06:05:19.998Z,100022.02
2023-05-24T06:07:54.233Z,100024.48
2023-05-24T06:10:28.154Z,100031.77
2023-05-24T06:13:03.185Z,100030.02
2023-05-24T06:15:38.392Z,100030.50
2023-05-24T06:18:13.996Z,100031.78
2023-05-24T06:20:48.054Z,100038.87
2023-05-24T06:23:22.080Z,100039.27
2023-05-24T06:25:56.527Z,100035.23
2023-05-24T06:28:38.878Z,100040.89
2023-05-24T06:31:12.575Z,100045.88
2023-05-24T06:33:52.516Z,100049.94
2023-05-24T06:36:42.020Z,100051.14
2023-05-24T06:39:16.612Z,100056.13
2023-05-24T06:41:51.874Z,100057.84
2023-05-24T06:44:34.922Z,100063.86
2023-05-24T06:47:10.907Z,100067.70
2023-05-24T06:49:44.458Z,100072.94
2023-05-24T06:52:18.117Z,100072.09
2023-05-24T06:54:52.548Z,100070.00
2023-05-24T06:57:27.168Z,100070.94
2023-05-24T07:00:01.339Z,100073.00
2023-05-24T07:02:35.257Z,100077.80
2023-05-24T07:05:12.816Z,100074.32
2023-05-24T07:07:47.427Z,100074.89
2023-05-24T07:10:21.226Z,100077.18
2023-05-24T07:12:54.820Z,100081.30
2023-05-24T07:15:28.470Z,100083.44
2023-05-24T07:18:02.007Z,100083.40
2023-05-24T07:20:36.121Z,100084.64
2023-05-24T07:23:10.139Z,100089.72
2023-05-24T07:25:44.264Z,100093.52
2023-05-24T07:28:20.670Z,100098.69
2023-05-24T07:30:54.255Z,100103.45
2023-05-24T07:33:27.968Z,100102.77
2023-05-24T07:36:01.763Z,100108.77
2023-05-24T07:38:36.538Z,100112.48
2023-05-24T07:41:11.032Z,100115.52
2023-05-24T07:43:44.804Z,100119.75
2023-05-24T07:46:18.716Z,100118.25
2023-05-24T07:48:52.876Z,100118.73
2023-05-24T07:51:26.950Z,100122.57
2023-05-24T07:54:01.428Z,100121.89
2023-05-24T07:56:35.276Z,100126.02
2023-05-24T07:59:09.377Z,100129.27
2023-05-24T08:01:43.057Z,100131.15
2023-05-24T08:04:16.754Z,100133.23
2023-05-24T08:06:50.342Z,100131.55
2023-05-24T08:09:24.384Z,100137.46
2023-05-24T08:11:58.316Z,100138.42
2023-05-24T08:14:33.969Z,100142.48
2023-05-24T08:17:08.026Z,100145.44
2023-05-24T08:19:41.558Z,100149.19
2023-05-24T08:22:16.248Z,100144.18
2023-05-24T08:24:49.855Z,100150.42
2023-05-24T08:27:24.079Z,100149.35
2023-05-24T08:29:57.949Z,100151.36
2023-05-24T08:32:32.532Z,100150.34
2023-05-24T08:35:18.318Z,100152.38
2023-05-24T08:37:53.481Z,100153.55
2023-05-24T08:40:28.262Z,100154.79
2023-05-24T08:43:03.707Z,100153.52
2023-05-24T08:45:41.549Z,100153.02
2023-05-24T08:48:16.362Z,100154.86
2023-05-24T08:50:51.538Z,100157.27
2023-05-24T08:53:26.276Z,100158.00
2023-05-24T08:56:00.185Z,100160.75
2023-05-24T08:58:34.729Z,100161.61
2023-05-24T09:01:09.022Z,100167.39
2023-05-24T09:03:45.291Z,100167.00
2023-05-24T09:06:20.812Z,100166.32
2023-05-24T09:08:54.874Z,100169.36
2023-05-24T09:11:30.180Z,100171.34
2023-05-24T09:14:04.743Z,100174.35
2023-05-24T09:16:48.709Z,100177.66
2023-05-24T09:19:23.376Z,100181.41
2023-05-24T09:21:57.933Z,100184.77
2023-05-24T09:24:31.864Z,100184.07
2023-05-24T09:27:10.983Z,100186.70
2023-05-24T09:29:46.646Z,100189.23
2023-05-24T09:32:23.242Z,100191.33
2023-05-24T09:34:59.545Z,100194.84
2023-05-24T09:37:34.583Z,100194.71
2023-05-24T09:40:19.852Z,100196.92
2023-05-24T09:43:07.597Z,100200.34
2023-05-24T09:45:47.593Z,100200.70
2023-05-24T09:48:22.534Z,100205.55
2023-05-24T09:51:06.225Z,100204.32
2023-05-24T09:53:41.040Z,100207.17
2023-05-24T09:56:15.570Z,100209.27
2023-05-24T09:58:49.617Z,100213.16
2023-05-24T10:01:27.262Z,100211.67
2023-05-24T10:04:05.469Z,100213.05
2023-05-24T10:06:43.577Z,100212.17
2023-05-24T10:09:18.633Z,100209.30
2023-05-24T10:11:53.658Z,100212.48
2023-05-24T10:14:30.045Z,100216.74
2023-05-24T10:17:04.291Z,100212.83
2023-05-24T10:19:39.756Z,100215.13
2023-05-24T10:22:16.260Z,100217.45
2023-05-24T10:24:52.416Z,100216.70
2023-05-24T10:27:31.987Z,100216.20
2023-05-24T10:30:14.418Z,100218.92
2023-05-24T10:32:49.604Z,100218.11
2023-05-24T10:35:24.033Z,100217.53
2023-05-24T10:37:58.432Z,100217.30
2023-05-24T10:40:33.753Z,100217.10
2023-05-24T10:43:10.239Z,100221.38
2023-05-24T10:45:50.264Z,100221.59
2023-05-24T10:48:44.120Z,100223.91
2023-05-24T10:51:35.886Z,100225.20
2023-05-24T10:54:20.680Z,100227.48
2023-05-24T10:56:54.866Z,100233.17
2023-05-24T10:59:38.190Z,100235.56
2023-05-24T11:02:15.064Z,100230.54
2023-05-24T11:04:50.859Z,100235.02
2023-05-24T11:07:25.263Z,100235.17
2023-05-24T11:10:08.633Z,100232.27
2023-05-24T11:12:46.367Z,100231.73
2023-05-24T11:15:28.023Z,100237.00
2023-05-24T11:18:24.351Z,100239.26
2023-05-24T11:20:58.926Z,100239.91
2023-05-24T11:23:33.974Z,100241.80
2023-05-24T11:26:10.462Z,100240.17
2023-05-24T11:28:45.016Z,100235.93
2023-05-24T11:31:32.411Z,100236.65
2023-05-24T11:34:06.374Z,100233.40
2023-05-24T11:36:41.498Z,100232.60
2023-05-24T11:39:15.397Z,100232.27
2023-05-24T11:41:51.330Z,100230.34
2023-05-24T11:44:26.384Z,100231.57
2023-05-24T11:47:04.547Z,100234.27
2023-05-24T11:49:38.606Z,100233.75
2023-05-24T11:52:12.221Z,100229.09
2023-05-24T11:54:45.688Z,100223.11
2023-05-24T11:57:21.157Z,100220.13
2023-05-24T11:59:55.804Z,100219.34
2023-05-24T12:02:31.413Z,100219.16
2023-05-24T12:05:14.662Z,100223.61
2023-05-24T12:07:50.114Z,100219.58
2023-05-24T12:10:24.392Z,100222.58
2023-05-24T12:12:58.442Z,100223.97
2023-05-24T12:15:32.597Z,100221.06
2023-05-24T12:18:06.501Z,100221.30
2023-05-24T12:20:42.354Z,100222.09
2023-05-24T12:23:19.179Z,100220.94
2023-05-24T12:25:53.177Z,100221.64
2023-05-24T12:28:28.034Z,100220.31
2023-05-24T12:31:01.838Z,100222.42
2023-05-24T12:33:36.516Z,100223.20
2023-05-24T12:36:11.870Z,100224.63
2023-05-24T12:38:46.298Z,100218.10
2023-05-24T12:41:20.593Z,100214.03
2023-05-24T12:43:55.157Z,100214.45
2023-05-24T12:46:29.549Z,100212.91
2023-05-24T12:49:05.578Z,100213.98
2023-05-24T12:51:39.199Z,100213.54
2023-05-24T12:54:13.186Z,100214.73
2023-05-24T12:56:46.929Z,100214.73
2023-05-24T12:59:20.610Z,100213.01
2023-05-24T13:01:54.661Z,100214.79
2023-05-24T13:04:28.538Z,100214.98
2023-05-24T13:07:03.445Z,100216.71
2023-05-24T13:09:37.091Z,100216.42
2023-05-24T13:12:12.924Z,100215.96
2023-05-24T13:14:46.528Z,100217.91
2023-05-24T13:17:20.655Z,100218.73
2023-05-24T13:19:55.110Z,100216.36
2023-05-24T13:22:29.177Z,100215.95
2023-05-24T13:25:03.333Z,100211.70
2023-05-24T13:27:37.885Z,100206.83
2023-05-24T13:30:13.965Z,100205.62
2023-05-24T13:32:47.887Z,100205.29
2023-05-24T13:35:25.920Z,100209.42
2023-05-24T13:37:59.632Z,100211.14
2023-05-24T13:40:33.875Z,100217.55
2023-05-24T13:43:07.590Z,100219.98
2023-05-24T13:45:42.039Z,100223.95
2023-05-24T13:48:15.980Z,100228.16
2023-05-24T13:50:49.794Z,100234.69
2023-05-24T13:53:23.935Z,100231.76
2023-05-24T13:55:57.629Z,100227.24
2023-05-24T13:58:31.899Z,100226.81
2023-05-24T14:01:06.267Z,100232.17
2023-05-24T14:03:42.257Z,100233.91
2023-05-24T14:06:16.920Z,100238.81
2023-05-24T14:08:51.079Z,100249.03
2023-05-24T14:11:25.207Z,100248.14
2023-05-24T14:16:37.328Z,100257.11
2023-05-24T14:19:11.267Z,100261.90
2023-05-24T14:21:45.257Z,100264.80
2023-05-24T14:24:19.539Z,100261.81
2023-05-24T14:26:53.295Z,100255.70
2023-05-24T14:29:27.259Z,100249.86
2023-05-24T14:32:00.833Z,100250.70
2023-05-24T14:34:34.913Z,100252.59
2023-05-24T14:37:09.864Z,100257.80
2023-05-24T14:39:43.712Z,100262.75
2023-05-24T14:42:17.392Z,100259.50
2023-05-24T14:44:51.589Z,100261.59
2023-05-24T14:47:25.667Z,100261.96
2023-05-24T14:49:59.362Z,100266.41
2023-05-24T14:52:33.136Z,100265.17
2023-05-24T14:55:08.835Z,100263.58
2023-05-24T14:57:43.812Z,100260.69
2023-05-24T15:00:22.472Z,100263.09
2023-05-24T15:02:57.409Z,100262.81
2023-05-24T15:05:31.713Z,100263.14
2023-05-24T15:08:06.219Z,100267.67
2023-05-24T15:10:41.315Z,100264.31
2023-05-24T15:13:15.753Z,100267.91
2023-05-24T15:15:49.342Z,100272.52
2023-05-24T15:18:26.459Z,100274.25
2023-05-24T15:21:00.466Z,100277.84
2023-05-24T15:23:34.733Z,100282.99
2023-05-24T15:26:08.557Z,100284.84
2023-05-24T15:28:42.460Z,100288.79
2023-05-24T15:31:16.696Z,100282.86
2023-05-24T15:33:50.629Z,100283.99
2023-05-24T15:36:24.578Z,100295.86
2023-05-24T15:39:01.347Z,100300.80
2023-05-24T15:41:35.413Z,100298.11
2023-05-24T15:44:10.206Z,100297.64
2023-05-24T15:46:44.281Z,100303.65
2023-05-24T15:49:18.237Z,100310.81
2023-05-24T15:54:29.668Z,100314.03
2023-05-24T15:57:04.106Z,100315.23
2023-05-24T15:59:38.974Z,100319.11
2023-05-24T16:02:13.475Z,100326.05
2023-05-24T16:04:47.349Z,100336.27
2023-05-24T16:07:21.217Z,100343.23
2023-05-24T16:09:55.394Z,100348.87
2023-05-24T16:12:30.228Z,100355.62
2023-05-24T16:15:05.538Z,100363.06
2023-05-24T16:17:40.040Z,100362.29
2023-05-24T16:20:14.354Z,100367.23
2023-05-24T16:22:52.028Z,100365.61
2023-05-24T16:25:26.258Z,100367.35
2023-05-24T16:28:01.025Z,100368.29
2023-05-24T16:30:34.950Z,100372.18
2023-05-24T16:33:09.512Z,100378.36
2023-05-24T16:35:43.678Z,100382.36
2023-05-24T16:38:18.945Z,100389.02
2023-05-24T16:40:52.874Z,100392.40
2023-05-24T16:43:27.028Z,100392.53
2023-05-24T16:46:00.681Z,100393.32
2023-05-24T16:48:34.509Z,100395.56
2023-05-24T16:51:08.536Z,100388.64
2023-05-24T16:53:42.153Z,100393.89
2023-05-24T16:56:16.381Z,100393.80
2023-05-24T16:58:50.778Z,100400.33
2023-05-24T17:01:24.830Z,100396.54
2023-05-24T17:03:59.054Z,100398.92
2023-05-24T17:06:33.165Z,100395.10
2023-05-24T17:09:07.407Z,100394.74
2023-05-24T17:11:41.800Z,100397.11
2023-05-24T17:14:16.089Z,100396.23
2023-05-24T17:16:49.750Z,100400.77
2023-05-24T17:19:25.660Z,100405.50
2023-05-24T17:21:59.751Z,100404.64
2023-05-24T17:24:34.101Z,100404.34
2023-05-24T17:27:08.234Z,100401.63
2023-05-24T17:29:41.940Z,100401.08
2023-05-24T17:32:15.913Z,100406.48
2023-05-24T17:34:49.907Z,100411.86
2023-05-24T17:37:23.788Z,100414.13
2023-05-24T17:40:00.868Z,100417.37
2023-05-24T17:42:35.051Z,100418.05
2023-05-24T17:45:10.634Z,100418.18
2023-05-24T17:47:44.577Z,100419.12
2023-05-24T17:50:18.549Z,100422.16
2023-05-24T17:52:52.618Z,100428.39
2023-05-24T17:55:26.834Z,100426.44
2023-05-24T17:58:00.584Z,100425.02
2023-05-24T18:00:34.509Z,100425.89
2023-05-24T18:03:09.014Z,100430.11
2023-05-24T18:05:43.445Z,100432.33
2023-05-24T18:08:17.579Z,100434.67
2023-05-24T18:10:51.313Z,100439.17
2023-05-24T18:13:24.971Z,100447.62
2023-05-24T18:15:59.066Z,100459.58
2023-05-24T18:18:33.268Z,100463.45
2023-05-24T18:21:07.748Z,100465.23
2023-05-24T18:23:41.941Z,100469.39
2023-05-24T18:26:15.732Z,100476.63
2023-05-24T18:28:49.682Z,100474.27
2023-05-24T18:31:23.473Z,100474.89
2023-05-24T18:33:59.460Z,100482.09
2023-05-24T18:36:35.173Z,100486.16
2023-05-24T18:39:09.266Z,100489.14
2023-05-24T18:41:43.069Z,100493.99
2023-05-24T18:44:17.493Z,100496.52
2023-05-24T18:46:55.897Z,100504.02
2023-05-24T18:49:30.378Z,100507.30
2023-05-24T18:52:05.328Z,100511.88
2023-05-24T18:54:39.483Z,100508.09
2023-05-24T18:57:13.177Z,100510.04
2023-05-24T18:59:56.288Z,100510.87
2023-05-24T19:02:30.203Z,100512.27
2023-05-24T19:05:04.469Z,100516.09
2023-05-24T19:07:38.869Z,100521.86
2023-05-24T19:10:14.266Z,100523.30
2023-05-24T19:12:48.079Z,100527.94
2023-05-24T19:15:22.217Z,100530.64
2023-05-24T19:17:58.098Z,100529.34
2023-05-24T19:20:31.927Z,100528.92
2023-05-24T19:23:06.070Z,100530.48
2023-05-24T19:25:42.289Z,100535.38
2023-05-24T19:28:16.649Z,100534.71
2023-05-24T19:30:50.820Z,100534.09
2023-05-24T19:33:24.389Z,100539.70
2023-05-24T19:35:58.060Z,100541.21
2023-05-24T19:38:31.891Z,100545.29
2023-05-24T19:41:06.439Z,100543.58
2023-05-24T19:43:40.467Z,100545.70
2023-05-24T19:46:15.035Z,100548.63
2023-05-24T19:48:49.030Z,100552.75
2023-05-24T19:51:23.213Z,100556.13
2023-05-24T19:53:56.974Z,100557.22
2023-05-24T19:56:30.885Z,100560.11
2023-05-24T19:59:04.558Z,100561.79
2023-05-24T20:01:38.615Z,100564.30
2023-05-24T20:04:13.001Z,100562.45
2023-05-24T20:06:47.426Z,100563.24
2023-05-24T20:09:21.433Z,100566.02
2023-05-24T20:11:55.633Z,100565.85
2023-05-24T20:14:31.903Z,100565.33
2023-05-24T20:17:07.000Z,100568.58
2023-05-24T20:19:40.628Z,100563.81
2023-05-24T20:22:16.683Z,100559.20
2023-05-24T20:24:50.648Z,100563.49
2023-05-24T20:27:24.700Z,100561.83
2023-05-24T20:29:58.239Z,100563.98
2023-05-24T20:32:33.049Z,100565.30
2023-05-24T20:35:08.876Z,100566.95
2023-05-24T20:37:43.040Z,100570.24
2023-05-24T20:40:22.382Z,100571.26
2023-05-24T20:42:56.687Z,100570.73
2023-05-24T20:45:30.407Z,100575.09
2023-05-24T20:48:04.897Z,100574.05
2023-05-24T20:50:38.520Z,100570.49
2023-05-24T20:53:12.326Z,100573.16
2023-05-24T20:55:46.725Z,100575.69
2023-05-24T20:58:21.105Z,100575.60
2023-05-24T21:00:54.857Z,100576.23
2023-05-24T21:03:29.528Z,100580.42
2023-05-24T21:06:03.326Z,100576.79
2023-05-24T21:08:37.308Z,100580.16
2023-05-24T21:11:11.606Z,100580.41
2023-05-24T21:13:45.618Z,100586.44
2023-05-24T21:16:19.929Z,100587.81
2023-05-24T21:18:54.287Z,100586.53
2023-05-24T21:21:28.220Z,100587.23
2023-05-24T21:24:01.992Z,100589.20
2023-05-24T21:26:35.782Z,100591.19
2023-05-24T21:29:11.816Z,100594.64
2023-05-24T21:31:45.608Z,100601.20
2023-05-24T21:34:19.452Z,100602.15
2023-05-24T21:36:53.253Z,100601.15
2023-05-24T21:39:27.584Z,100602.11
2023-05-24T21:42:02.541Z,100604.83
2023-05-24T21:44:36.136Z,100606.91
2023-05-24T21:47:10.448Z,100607.50
2023-05-24T21:49:43.965Z,100606.40
2023-05-24T21:52:17.645Z,100606.57
2023-05-24T21:54:51.261Z,100604.28
2023-05-24T21:57:26.519Z,100603.42
2023-05-24T22:00:00.847Z,100603.69
2023-05-24T22:02:35.519Z,100607.96
2023-05-24T22:05:09.887Z,100611.67
2023-05-24T22:07:43.626Z,100607.72
2023-05-24T22:10:17.563Z,100610.02
2023-05-24T22:12:51.473Z,100610.98
2023-05-24T22:15:25.706Z,100613.02
2023-05-24T22:18:01.816Z,100618.30
2023-05-24T22:20:36.977Z,100619.82
2023-05-24T22:23:11.318Z,100619.19
2023-05-24T22:25:45.295Z,100617.77
2023-05-24T22:28:20.518Z,100620.70
2023-05-24T22:30:54.519Z,100624.28
2023-05-24T22:33:28.174Z,100622.68
2023-05-24T22:36:02.402Z,100623.15
2023-05-24T22:38:36.537Z,100626.63
2023-05-24T22:41:10.463Z,100630.02
2023-05-24T22:43:44.065Z,100630.60
2023-05-24T22:46:17.778Z,100633.08
2023-05-24T22:48:53.870Z,100633.13
2023-05-24T22:51:27.604Z,100632.77
2023-05-24T22:54:01.280Z,100631.84
2023-05-24T22:56:36.442Z,100631.88
2023-05-24T22:59:10.680Z,100632.77
2023-05-24T23:01:45.134Z,100626.41
2023-05-24T23:04:21.548Z,100623.08
2023-05-24T23:06:57.121Z,100623.96
2023-05-24T23:09:35.342Z,100624.73
2023-05-24T23:12:10.892Z,100624.27
2023-05-24T23:14:46.805Z,100623.58
2023-05-24T23:17:24.371Z,100625.79
2023-05-24T23:19:59.530Z,100630.20
2023-05-24T23:22:33.050Z,100636.53
2023-05-24T23:25:08.444Z,100639.20
2023-05-24T23:27:42.932Z,100635.91
2023-05-24T23:30:17.087Z,100636.27
2023-05-24T23:32:50.884Z,100636.79
2023-05-24T23:35:25.326Z,100643.08
2023-05-24T23:37:58.878Z,100644.79
2023-05-24T23:40:32.803Z,100650.23
2023-05-24T23:43:06.936Z,100654.80
2023-05-24T23:45:41.049Z,100656.83
2023-05-24T23:48:15.409Z,100658.91
2023-05-24T23:50:54.460Z,100666.05
2023-05-24T23:53:28.588Z,100666.29
2023-05-24T23:56:02.214Z,100669.15
2023-05-24T23:58:37.913Z,100667.80
